<?xml version="1.0" encoding="UTF-8" standalone="yes"?>
<gpx version="1.1" creator="MagicMaps Tour Explorer"
     xmlns:xsi="http://www.w3.org/2001/XMLSchema-instance"
     xmlns="http://www.topografix.com/GPX/1/1">
  <trk>
    <name>triglav_nord</name>
    <trkseg>
      <trkpt lat="46.409049807" lon="13.843266629">
        <ele>970.9</ele>
        <time>2017-08-18T04:18:43</time>
      </trkpt>
      <trkpt lat="46.409217697" lon="13.843313651">
        <ele>975.4</ele>
        <time>2017-08-18T04:19:01</time>
      </trkpt>
      <trkpt lat="46.408939501" lon="13.843194628">
        <ele>996.5</ele>
        <time>2017-08-18T04:19:44</time>
      </trkpt>
      <trkpt lat="46.408924833" lon="13.842901932">
        <ele>994.8</ele>
        <time>2017-08-18T04:20:01</time>
      </trkpt>
      <trkpt lat="46.408269368" lon="13.842276391">
        <ele>996.1</ele>
        <time>2017-08-18T04:20:59</time>
      </trkpt>
      <trkpt lat="46.407219283" lon="13.841773979">
        <ele>996.5</ele>
        <time>2017-08-18T04:22:17</time>
      </trkpt>
      <trkpt lat="46.407007808" lon="13.841543980">
        <ele>996.7</ele>
        <time>2017-08-18T04:22:38</time>
      </trkpt>
      <trkpt lat="46.406443203" lon="13.841567030">
        <ele>997.7</ele>
        <time>2017-08-18T04:23:30</time>
      </trkpt>
      <trkpt lat="46.405726299" lon="13.841405930">
        <ele>997.2</ele>
        <time>2017-08-18T04:24:30</time>
      </trkpt>
      <trkpt lat="46.405423461" lon="13.841240136">
        <ele>997.8</ele>
        <time>2017-08-18T04:25:00</time>
      </trkpt>
      <trkpt lat="46.405126322" lon="13.840961773">
        <ele>998.6</ele>
        <time>2017-08-18T04:25:39</time>
      </trkpt>
      <trkpt lat="46.405084329" lon="13.840691205">
        <ele>998.3</ele>
        <time>2017-08-18T04:25:57</time>
      </trkpt>
      <trkpt lat="46.404984500" lon="13.840519125">
        <ele>999.0</ele>
        <time>2017-08-18T04:26:11</time>
      </trkpt>
      <trkpt lat="46.404725416" lon="13.840220645">
        <ele>999.7</ele>
        <time>2017-08-18T04:26:42</time>
      </trkpt>
      <trkpt lat="46.404310847" lon="13.840007493">
        <ele>1003.1</ele>
        <time>2017-08-18T04:27:31</time>
      </trkpt>
      <trkpt lat="46.403867193" lon="13.839536514">
        <ele>1004.6</ele>
        <time>2017-08-18T04:28:22</time>
      </trkpt>
      <trkpt lat="46.403644150" lon="13.839141307">
        <ele>1003.8</ele>
        <time>2017-08-18T04:28:51</time>
      </trkpt>
      <trkpt lat="46.403239304" lon="13.838798655">
        <ele>1006.7</ele>
        <time>2017-08-18T04:29:30</time>
      </trkpt>
      <trkpt lat="46.402580319" lon="13.838415686">
        <ele>1007.7</ele>
        <time>2017-08-18T04:30:27</time>
      </trkpt>
      <trkpt lat="46.402020324" lon="13.838348044">
        <ele>1009.3</ele>
        <time>2017-08-18T04:31:19</time>
      </trkpt>
      <trkpt lat="46.401390843" lon="13.838438736">
        <ele>1011.7</ele>
        <time>2017-08-18T04:32:14</time>
      </trkpt>
      <trkpt lat="46.399822002" lon="13.837860636">
        <ele>1019.7</ele>
        <time>2017-08-18T04:34:31</time>
      </trkpt>
      <trkpt lat="46.399519918" lon="13.837650586">
        <ele>1025.2</ele>
        <time>2017-08-18T04:35:11</time>
      </trkpt>
      <trkpt lat="46.398793124" lon="13.837369960">
        <ele>1036.6</ele>
        <time>2017-08-18T04:36:38</time>
      </trkpt>
      <trkpt lat="46.398018887" lon="13.837631308">
        <ele>1040.0</ele>
        <time>2017-08-18T04:37:56</time>
      </trkpt>
      <trkpt lat="46.397525109" lon="13.837516140">
        <ele>1039.1</ele>
        <time>2017-08-18T04:38:46</time>
      </trkpt>
      <trkpt lat="46.397197964" lon="13.837558636">
        <ele>1041.5</ele>
        <time>2017-08-18T04:39:23</time>
      </trkpt>
      <trkpt lat="46.396708628" lon="13.837192599">
        <ele>1049.2</ele>
        <time>2017-08-18T04:40:19</time>
      </trkpt>
      <trkpt lat="46.396153914" lon="13.837153958">
        <ele>1053.0</ele>
        <time>2017-08-18T04:41:20</time>
      </trkpt>
      <trkpt lat="46.395802125" lon="13.836989673">
        <ele>1059.4</ele>
        <time>2017-08-18T04:42:13</time>
      </trkpt>
      <trkpt lat="46.395507418" lon="13.836708376">
        <ele>1064.6</ele>
        <time>2017-08-18T04:42:58</time>
      </trkpt>
      <trkpt lat="46.395417647" lon="13.836462786">
        <ele>1068.8</ele>
        <time>2017-08-18T04:43:33</time>
      </trkpt>
      <trkpt lat="46.394697139" lon="13.836680213">
        <ele>1085.2</ele>
        <time>2017-08-18T04:45:29</time>
      </trkpt>
      <trkpt lat="46.394525561" lon="13.836414004">
        <ele>1092.6</ele>
        <time>2017-08-18T04:46:16</time>
      </trkpt>
      <trkpt lat="46.394382399" lon="13.836361701">
        <ele>1094.2</ele>
        <time>2017-08-18T04:46:33</time>
      </trkpt>
      <trkpt lat="46.394085931" lon="13.836028939">
        <ele>1103.5</ele>
        <time>2017-08-18T04:47:38</time>
      </trkpt>
      <trkpt lat="46.393567678" lon="13.835879741">
        <ele>1115.1</ele>
        <time>2017-08-18T04:48:59</time>
      </trkpt>
      <trkpt lat="46.393206166" lon="13.835631805">
        <ele>1123.3</ele>
        <time>2017-08-18T04:50:49</time>
      </trkpt>
      <trkpt lat="46.393169202" lon="13.835694585">
        <ele>1124.0</ele>
        <time>2017-08-18T04:52:35</time>
      </trkpt>
      <trkpt lat="46.393197533" lon="13.835610934">
        <ele>1127.2</ele>
        <time>2017-08-18T04:53:40</time>
      </trkpt>
      <trkpt lat="46.392551623" lon="13.835078767">
        <ele>1150.0</ele>
        <time>2017-08-18T04:56:00</time>
      </trkpt>
      <trkpt lat="46.392348362" lon="13.834761931">
        <ele>1158.1</ele>
        <time>2017-08-18T04:56:57</time>
      </trkpt>
      <trkpt lat="46.391539089" lon="13.833793485">
        <ele>1186.9</ele>
        <time>2017-08-18T05:00:13</time>
      </trkpt>
      <trkpt lat="46.391263911" lon="13.833594415">
        <ele>1197.6</ele>
        <time>2017-08-18T05:01:21</time>
      </trkpt>
      <trkpt lat="46.391007341" lon="13.833262743">
        <ele>1210.3</ele>
        <time>2017-08-18T05:02:44</time>
      </trkpt>
      <trkpt lat="46.390266884" lon="13.832795871">
        <ele>1232.7</ele>
        <time>2017-08-18T05:05:16</time>
      </trkpt>
      <trkpt lat="46.390011823" lon="13.832481885">
        <ele>1246.0</ele>
        <time>2017-08-18T05:06:45</time>
      </trkpt>
      <trkpt lat="46.389794061" lon="13.831629110">
        <ele>1264.8</ele>
        <time>2017-08-18T05:09:06</time>
      </trkpt>
      <trkpt lat="46.389708146" lon="13.830774240">
        <ele>1279.2</ele>
        <time>2017-08-18T05:10:59</time>
      </trkpt>
      <trkpt lat="46.389774950" lon="13.830440976">
        <ele>1281.6</ele>
        <time>2017-08-18T05:11:29</time>
      </trkpt>
      <trkpt lat="46.389750140" lon="13.829965638">
        <ele>1284.6</ele>
        <time>2017-08-18T05:12:16</time>
      </trkpt>
      <trkpt lat="46.389896739" lon="13.829569258">
        <ele>1282.1</ele>
        <time>2017-08-18T05:12:59</time>
      </trkpt>
      <trkpt lat="46.389882322" lon="13.829404470">
        <ele>1282.8</ele>
        <time>2017-08-18T05:13:16</time>
      </trkpt>
      <trkpt lat="46.390037974" lon="13.829116970">
        <ele>1288.1</ele>
        <time>2017-08-18T05:14:04</time>
      </trkpt>
      <trkpt lat="46.390004866" lon="13.828673651">
        <ele>1299.1</ele>
        <time>2017-08-18T05:15:14</time>
      </trkpt>
      <trkpt lat="46.390168983" lon="13.827976780">
        <ele>1319.2</ele>
        <time>2017-08-18T05:17:35</time>
      </trkpt>
      <trkpt lat="46.390134618" lon="13.827796653">
        <ele>1323.9</ele>
        <time>2017-08-18T05:18:11</time>
      </trkpt>
      <trkpt lat="46.390198152" lon="13.827507477">
        <ele>1335.3</ele>
        <time>2017-08-18T05:19:26</time>
      </trkpt>
      <trkpt lat="46.390084494" lon="13.826789735">
        <ele>1357.8</ele>
        <time>2017-08-18T05:22:12</time>
      </trkpt>
      <trkpt lat="46.390141658" lon="13.826449178">
        <ele>1367.7</ele>
        <time>2017-08-18T05:23:18</time>
      </trkpt>
      <trkpt lat="46.390012996" lon="13.826042823">
        <ele>1378.2</ele>
        <time>2017-08-18T05:24:37</time>
      </trkpt>
      <trkpt lat="46.389945438" lon="13.825614844">
        <ele>1389.8</ele>
        <time>2017-08-18T05:25:58</time>
      </trkpt>
      <trkpt lat="46.389990784" lon="13.825491713">
        <ele>1392.4</ele>
        <time>2017-08-18T05:26:33</time>
      </trkpt>
      <trkpt lat="46.389935715" lon="13.825384006">
        <ele>1395.7</ele>
        <time>2017-08-18T05:27:18</time>
      </trkpt>
      <trkpt lat="46.389962705" lon="13.825103883">
        <ele>1402.2</ele>
        <time>2017-08-18T05:28:01</time>
      </trkpt>
      <trkpt lat="46.389774280" lon="13.824640028">
        <ele>1418.7</ele>
        <time>2017-08-18T05:29:57</time>
      </trkpt>
      <trkpt lat="46.389757935" lon="13.824268794">
        <ele>1427.1</ele>
        <time>2017-08-18T05:30:59</time>
      </trkpt>
      <trkpt lat="46.389517793" lon="13.823123909">
        <ele>1458.5</ele>
        <time>2017-08-18T05:34:35</time>
      </trkpt>
      <trkpt lat="46.389544448" lon="13.822667934">
        <ele>1465.3</ele>
        <time>2017-08-18T05:35:45</time>
      </trkpt>
      <trkpt lat="46.389450487" lon="13.822151776">
        <ele>1479.2</ele>
        <time>2017-08-18T05:37:21</time>
      </trkpt>
      <trkpt lat="46.389520643" lon="13.821963351">
        <ele>1483.8</ele>
        <time>2017-08-18T05:37:55</time>
      </trkpt>
      <trkpt lat="46.389463646" lon="13.821237814">
        <ele>1500.3</ele>
        <time>2017-08-18T05:39:51</time>
      </trkpt>
      <trkpt lat="46.389510837" lon="13.821063135">
        <ele>1504.3</ele>
        <time>2017-08-18T05:40:22</time>
      </trkpt>
      <trkpt lat="46.389323585" lon="13.820200302">
        <ele>1529.4</ele>
        <time>2017-08-18T05:43:26</time>
      </trkpt>
      <trkpt lat="46.389234820" lon="13.820170378">
        <ele>1533.9</ele>
        <time>2017-08-18T05:43:57</time>
      </trkpt>
      <trkpt lat="46.389139686" lon="13.819847088">
        <ele>1544.4</ele>
        <time>2017-08-18T05:45:16</time>
      </trkpt>
      <trkpt lat="46.389240771" lon="13.819603426">
        <ele>1549.2</ele>
        <time>2017-08-18T05:46:30</time>
      </trkpt>
      <trkpt lat="46.389345126" lon="13.819622956">
        <ele>1549.1</ele>
        <time>2017-08-18T05:48:42</time>
      </trkpt>
      <trkpt lat="46.389233898" lon="13.819564031">
        <ele>1551.1</ele>
        <time>2017-08-18T05:49:17</time>
      </trkpt>
      <trkpt lat="46.389080845" lon="13.819077127">
        <ele>1571.5</ele>
        <time>2017-08-18T05:51:39</time>
      </trkpt>
      <trkpt lat="46.389123760" lon="13.818929857">
        <ele>1575.7</ele>
        <time>2017-08-18T05:52:13</time>
      </trkpt>
      <trkpt lat="46.389072295" lon="13.818875877">
        <ele>1578.1</ele>
        <time>2017-08-18T05:52:32</time>
      </trkpt>
      <trkpt lat="46.389082186" lon="13.818587875">
        <ele>1588.1</ele>
        <time>2017-08-18T05:53:57</time>
      </trkpt>
      <trkpt lat="46.388666611" lon="13.818234578">
        <ele>1609.1</ele>
        <time>2017-08-18T05:56:30</time>
      </trkpt>
      <trkpt lat="46.388424877" lon="13.817832749">
        <ele>1630.5</ele>
        <time>2017-08-18T05:59:09</time>
      </trkpt>
      <trkpt lat="46.388313146" lon="13.817813639">
        <ele>1636.9</ele>
        <time>2017-08-18T06:00:02</time>
      </trkpt>
      <trkpt lat="46.388131427" lon="13.817040911">
        <ele>1669.2</ele>
        <time>2017-08-18T06:04:29</time>
      </trkpt>
      <trkpt lat="46.388001172" lon="13.817115761">
        <ele>1676.3</ele>
        <time>2017-08-18T06:05:26</time>
      </trkpt>
      <trkpt lat="46.387945097" lon="13.817044683">
        <ele>1678.6</ele>
        <time>2017-08-18T06:05:43</time>
      </trkpt>
      <trkpt lat="46.387976361" lon="13.816030221">
        <ele>1709.7</ele>
        <time>2017-08-18T06:09:29</time>
      </trkpt>
      <trkpt lat="46.388308704" lon="13.815821344">
        <ele>1711.5</ele>
        <time>2017-08-18T06:10:21</time>
      </trkpt>
      <trkpt lat="46.388346255" lon="13.815646917">
        <ele>1714.8</ele>
        <time>2017-08-18T06:10:38</time>
      </trkpt>
      <trkpt lat="46.388194961" lon="13.815657226">
        <ele>1717.7</ele>
        <time>2017-08-18T06:10:56</time>
      </trkpt>
      <trkpt lat="46.388124470" lon="13.815552955">
        <ele>1721.7</ele>
        <time>2017-08-18T06:11:25</time>
      </trkpt>
      <trkpt lat="46.387973847" lon="13.815606516">
        <ele>1725.3</ele>
        <time>2017-08-18T06:11:55</time>
      </trkpt>
      <trkpt lat="46.387947025" lon="13.815564858">
        <ele>1728.3</ele>
        <time>2017-08-18T06:12:14</time>
      </trkpt>
      <trkpt lat="46.388028245" lon="13.815518757">
        <ele>1730.9</ele>
        <time>2017-08-18T06:12:33</time>
      </trkpt>
      <trkpt lat="46.387858260" lon="13.815383390">
        <ele>1741.8</ele>
        <time>2017-08-18T06:13:54</time>
      </trkpt>
      <trkpt lat="46.387858428" lon="13.815110894">
        <ele>1752.5</ele>
        <time>2017-08-18T06:15:17</time>
      </trkpt>
      <trkpt lat="46.387999328" lon="13.814819455">
        <ele>1760.5</ele>
        <time>2017-08-18T06:19:06</time>
      </trkpt>
      <trkpt lat="46.387797743" lon="13.814981896">
        <ele>1765.3</ele>
        <time>2017-08-18T06:36:22</time>
      </trkpt>
      <trkpt lat="46.387630273" lon="13.814941999">
        <ele>1773.0</ele>
        <time>2017-08-18T06:37:43</time>
      </trkpt>
      <trkpt lat="46.387563804" lon="13.815060267">
        <ele>1780.5</ele>
        <time>2017-08-18T06:38:31</time>
      </trkpt>
      <trkpt lat="46.387434304" lon="13.815075187">
        <ele>1780.9</ele>
        <time>2017-08-18T06:39:54</time>
      </trkpt>
      <trkpt lat="46.387570007" lon="13.815320525">
        <ele>1799.7</ele>
        <time>2017-08-18T06:42:32</time>
      </trkpt>
      <trkpt lat="46.387515357" lon="13.815471903">
        <ele>1806.7</ele>
        <time>2017-08-18T06:43:29</time>
      </trkpt>
      <trkpt lat="46.387383677" lon="13.815504843">
        <ele>1809.2</ele>
        <time>2017-08-18T06:44:56</time>
      </trkpt>
      <trkpt lat="46.387447547" lon="13.815570474">
        <ele>1814.6</ele>
        <time>2017-08-18T06:45:57</time>
      </trkpt>
      <trkpt lat="46.387525247" lon="13.815459413">
        <ele>1824.5</ele>
        <time>2017-08-18T06:48:14</time>
      </trkpt>
      <trkpt lat="46.387210507" lon="13.815671727">
        <ele>1853.7</ele>
        <time>2017-08-18T06:52:46</time>
      </trkpt>
      <trkpt lat="46.387281418" lon="13.815746578">
        <ele>1864.4</ele>
        <time>2017-08-18T06:54:16</time>
      </trkpt>
      <trkpt lat="46.387089807" lon="13.816024689">
        <ele>1882.4</ele>
        <time>2017-08-18T06:56:37</time>
      </trkpt>
      <trkpt lat="46.387064327" lon="13.816207666">
        <ele>1888.8</ele>
        <time>2017-08-18T06:57:32</time>
      </trkpt>
      <trkpt lat="46.387168681" lon="13.816237003">
        <ele>1902.0</ele>
        <time>2017-08-18T06:59:09</time>
      </trkpt>
      <trkpt lat="46.387096848" lon="13.816339178">
        <ele>1908.5</ele>
        <time>2017-08-18T07:00:01</time>
      </trkpt>
      <trkpt lat="46.387006240" lon="13.816534728">
        <ele>1924.0</ele>
        <time>2017-08-18T07:02:28</time>
      </trkpt>
      <trkpt lat="46.386959469" lon="13.816793477">
        <ele>1946.8</ele>
        <time>2017-08-18T07:05:18</time>
      </trkpt>
      <trkpt lat="46.386714885" lon="13.816736732">
        <ele>1940.6</ele>
        <time>2017-08-18T07:09:14</time>
      </trkpt>
      <trkpt lat="46.386698037" lon="13.816639166">
        <ele>1938.1</ele>
        <time>2017-08-18T07:09:50</time>
      </trkpt>
      <trkpt lat="46.386516234" lon="13.816549061">
        <ele>1936.3</ele>
        <time>2017-08-18T07:10:51</time>
      </trkpt>
      <trkpt lat="46.386404000" lon="13.816699265">
        <ele>1948.1</ele>
        <time>2017-08-18T07:12:14</time>
      </trkpt>
      <trkpt lat="46.386474744" lon="13.816753747">
        <ele>1952.1</ele>
        <time>2017-08-18T07:12:50</time>
      </trkpt>
      <trkpt lat="46.386332922" lon="13.816844691">
        <ele>1959.7</ele>
        <time>2017-08-18T07:13:47</time>
      </trkpt>
      <trkpt lat="46.386383716" lon="13.816999421">
        <ele>1972.0</ele>
        <time>2017-08-18T07:15:48</time>
      </trkpt>
      <trkpt lat="46.386233931" lon="13.817041414">
        <ele>1980.9</ele>
        <time>2017-08-18T07:17:14</time>
      </trkpt>
      <trkpt lat="46.386290845" lon="13.817127412">
        <ele>1987.7</ele>
        <time>2017-08-18T07:18:21</time>
      </trkpt>
      <trkpt lat="46.386199649" lon="13.817325644">
        <ele>1992.1</ele>
        <time>2017-08-18T07:19:04</time>
      </trkpt>
      <trkpt lat="46.386072664" lon="13.817446763">
        <ele>1997.1</ele>
        <time>2017-08-18T07:19:46</time>
      </trkpt>
      <trkpt lat="46.385686006" lon="13.817449277">
        <ele>2024.7</ele>
        <time>2017-08-18T07:24:31</time>
      </trkpt>
      <trkpt lat="46.385539323" lon="13.817710876">
        <ele>2037.9</ele>
        <time>2017-08-18T07:26:24</time>
      </trkpt>
      <trkpt lat="46.385439830" lon="13.817709787">
        <ele>2042.5</ele>
        <time>2017-08-18T07:26:59</time>
      </trkpt>
      <trkpt lat="46.385388952" lon="13.817871306">
        <ele>2054.6</ele>
        <time>2017-08-18T07:28:30</time>
      </trkpt>
      <trkpt lat="46.385025932" lon="13.818140868">
        <ele>2071.4</ele>
        <time>2017-08-18T07:30:43</time>
      </trkpt>
      <trkpt lat="46.385202203" lon="13.818197781">
        <ele>2079.8</ele>
        <time>2017-08-18T07:32:01</time>
      </trkpt>
      <trkpt lat="46.385116121" lon="13.818312278">
        <ele>2088.4</ele>
        <time>2017-08-18T07:33:16</time>
      </trkpt>
      <trkpt lat="46.385009587" lon="13.818403892">
        <ele>2094.0</ele>
        <time>2017-08-18T07:33:55</time>
      </trkpt>
      <trkpt lat="46.384565933" lon="13.818247821">
        <ele>2103.2</ele>
        <time>2017-08-18T07:35:25</time>
      </trkpt>
      <trkpt lat="46.384578589" lon="13.818424093">
        <ele>2115.9</ele>
        <time>2017-08-18T07:36:55</time>
      </trkpt>
      <trkpt lat="46.384471804" lon="13.818571530">
        <ele>2125.4</ele>
        <time>2017-08-18T07:38:09</time>
      </trkpt>
      <trkpt lat="46.384618152" lon="13.818686111">
        <ele>2135.9</ele>
        <time>2017-08-18T07:39:25</time>
      </trkpt>
      <trkpt lat="46.384672048" lon="13.818969335">
        <ele>2146.5</ele>
        <time>2017-08-18T07:40:56</time>
      </trkpt>
      <trkpt lat="46.384803643" lon="13.819008563">
        <ele>2151.3</ele>
        <time>2017-08-18T07:41:32</time>
      </trkpt>
      <trkpt lat="46.384742120" lon="13.819033541">
        <ele>2153.8</ele>
        <time>2017-08-18T07:42:20</time>
      </trkpt>
      <trkpt lat="46.384729631" lon="13.819175698">
        <ele>2160.8</ele>
        <time>2017-08-18T07:43:12</time>
      </trkpt>
      <trkpt lat="46.384583199" lon="13.819313161">
        <ele>2169.7</ele>
        <time>2017-08-18T07:44:33</time>
      </trkpt>
      <trkpt lat="46.384426458" lon="13.819403937">
        <ele>2177.2</ele>
        <time>2017-08-18T07:45:29</time>
      </trkpt>
      <trkpt lat="46.384360744" lon="13.819664782">
        <ele>2190.0</ele>
        <time>2017-08-18T07:46:57</time>
      </trkpt>
      <trkpt lat="46.384460907" lon="13.819594458">
        <ele>2196.3</ele>
        <time>2017-08-18T07:47:52</time>
      </trkpt>
      <trkpt lat="46.384511115" lon="13.819747344">
        <ele>2206.8</ele>
        <time>2017-08-18T07:49:27</time>
      </trkpt>
      <trkpt lat="46.384562664" lon="13.820026545">
        <ele>2217.3</ele>
        <time>2017-08-18T07:50:39</time>
      </trkpt>
      <trkpt lat="46.384526873" lon="13.820082787">
        <ele>2220.7</ele>
        <time>2017-08-18T07:51:14</time>
      </trkpt>
      <trkpt lat="46.384582277" lon="13.820186388">
        <ele>2225.3</ele>
        <time>2017-08-18T07:51:46</time>
      </trkpt>
      <trkpt lat="46.384717561" lon="13.820197452">
        <ele>2230.8</ele>
        <time>2017-08-18T07:52:43</time>
      </trkpt>
      <trkpt lat="46.384419417" lon="13.820779240">
        <ele>2246.0</ele>
        <time>2017-08-18T08:12:37</time>
      </trkpt>
      <trkpt lat="46.383919688" lon="13.821386509">
        <ele>2275.2</ele>
        <time>2017-08-18T08:17:54</time>
      </trkpt>
      <trkpt lat="46.383889010" lon="13.821268827">
        <ele>2284.1</ele>
        <time>2017-08-18T08:19:29</time>
      </trkpt>
      <trkpt lat="46.383746434" lon="13.821374187">
        <ele>2292.4</ele>
        <time>2017-08-18T08:21:27</time>
      </trkpt>
      <trkpt lat="46.383570414" lon="13.821346778">
        <ele>2308.4</ele>
        <time>2017-08-18T08:23:40</time>
      </trkpt>
      <trkpt lat="46.383618191" lon="13.821298415">
        <ele>2308.9</ele>
        <time>2017-08-18T08:25:00</time>
      </trkpt>
      <trkpt lat="46.383633865" lon="13.821409978">
        <ele>2318.5</ele>
        <time>2017-08-18T08:26:56</time>
      </trkpt>
      <trkpt lat="46.383666471" lon="13.821304785">
        <ele>2321.0</ele>
        <time>2017-08-18T08:27:35</time>
      </trkpt>
      <trkpt lat="46.383623388" lon="13.821274191">
        <ele>2321.5</ele>
        <time>2017-08-18T08:27:50</time>
      </trkpt>
      <trkpt lat="46.383522721" lon="13.821280729">
        <ele>2325.7</ele>
        <time>2017-08-18T08:28:49</time>
      </trkpt>
      <trkpt lat="46.383275120" lon="13.821196826">
        <ele>2336.1</ele>
        <time>2017-08-18T08:31:45</time>
      </trkpt>
      <trkpt lat="46.383379390" lon="13.821373852">
        <ele>2344.9</ele>
        <time>2017-08-18T08:32:47</time>
      </trkpt>
      <trkpt lat="46.383327842" lon="13.821370332">
        <ele>2349.4</ele>
        <time>2017-08-18T08:33:18</time>
      </trkpt>
      <trkpt lat="46.383287692" lon="13.821568396">
        <ele>2354.2</ele>
        <time>2017-08-18T08:34:12</time>
      </trkpt>
      <trkpt lat="46.382730380" lon="13.822170468">
        <ele>2352.5</ele>
        <time>2017-08-18T08:37:13</time>
      </trkpt>
      <trkpt lat="46.382566849" lon="13.822519658">
        <ele>2317.5</ele>
        <time>2017-08-18T08:38:44</time>
      </trkpt>
      <trkpt lat="46.382445982" lon="13.822600963">
        <ele>2361.6</ele>
        <time>2017-08-18T08:39:13</time>
      </trkpt>
      <trkpt lat="46.382457130" lon="13.822791232">
        <ele>2356.7</ele>
        <time>2017-08-18T08:41:17</time>
      </trkpt>
      <trkpt lat="46.382157058" lon="13.822798440">
        <ele>2346.8</ele>
        <time>2017-08-18T08:42:40</time>
      </trkpt>
      <trkpt lat="46.381911803" lon="13.823051993">
        <ele>2334.1</ele>
        <time>2017-08-18T08:44:33</time>
      </trkpt>
      <trkpt lat="46.381837037" lon="13.822986782">
        <ele>2330.5</ele>
        <time>2017-08-18T08:45:14</time>
      </trkpt>
      <trkpt lat="46.381638301" lon="13.823532192">
        <ele>2352.5</ele>
        <time>2017-08-18T08:48:08</time>
      </trkpt>
      <trkpt lat="46.381397070" lon="13.823535964">
        <ele>2365.3</ele>
        <time>2017-08-18T08:49:47</time>
      </trkpt>
      <trkpt lat="46.381314090" lon="13.823624561">
        <ele>2365.6</ele>
        <time>2017-08-18T08:50:03</time>
      </trkpt>
      <trkpt lat="46.381009324" lon="13.823647862">
        <ele>2372.8</ele>
        <time>2017-08-18T08:51:22</time>
      </trkpt>
      <trkpt lat="46.380940760" lon="13.825214440">
        <ele>2373.7</ele>
        <time>2017-08-18T08:55:53</time>
      </trkpt>
      <trkpt lat="46.380822994" lon="13.825582825">
        <ele>2373.1</ele>
        <time>2017-08-18T08:56:33</time>
      </trkpt>
      <trkpt lat="46.380578829" lon="13.825997310">
        <ele>2372.0</ele>
        <time>2017-08-18T08:57:19</time>
      </trkpt>
      <trkpt lat="46.380288648" lon="13.826188417">
        <ele>2367.8</ele>
        <time>2017-08-18T08:58:22</time>
      </trkpt>
      <trkpt lat="46.380149508" lon="13.826441383">
        <ele>2367.2</ele>
        <time>2017-08-18T09:02:09</time>
      </trkpt>
      <trkpt lat="46.380311614" lon="13.826659983">
        <ele>2371.2</ele>
        <time>2017-08-18T09:02:53</time>
      </trkpt>
      <trkpt lat="46.380273811" lon="13.826790908">
        <ele>2369.7</ele>
        <time>2017-08-18T09:03:21</time>
      </trkpt>
      <trkpt lat="46.380436504" lon="13.826965839">
        <ele>2375.6</ele>
        <time>2017-08-18T09:04:06</time>
      </trkpt>
      <trkpt lat="46.380544044" lon="13.827484343">
        <ele>2377.0</ele>
        <time>2017-08-18T09:05:03</time>
      </trkpt>
      <trkpt lat="46.380387470" lon="13.827741081">
        <ele>2386.3</ele>
        <time>2017-08-18T09:06:17</time>
      </trkpt>
      <trkpt lat="46.380215893" lon="13.828458488">
        <ele>2397.8</ele>
        <time>2017-08-18T09:08:12</time>
      </trkpt>
      <trkpt lat="46.380255455" lon="13.828708101">
        <ele>2400.6</ele>
        <time>2017-08-18T09:09:10</time>
      </trkpt>
      <trkpt lat="46.380215138" lon="13.829905540">
        <ele>2419.7</ele>
        <time>2017-08-18T09:12:53</time>
      </trkpt>
      <trkpt lat="46.380038531" lon="13.829819374">
        <ele>2426.3</ele>
        <time>2017-08-18T09:13:54</time>
      </trkpt>
      <trkpt lat="46.379560344" lon="13.830045350">
        <ele>2445.1</ele>
        <time>2017-08-18T09:16:39</time>
      </trkpt>
      <trkpt lat="46.379304780" lon="13.830597298">
        <ele>2454.5</ele>
        <time>2017-08-18T09:18:27</time>
      </trkpt>
      <trkpt lat="46.379334871" lon="13.830891922">
        <ele>2462.4</ele>
        <time>2017-08-18T09:20:02</time>
      </trkpt>
      <trkpt lat="46.379249962" lon="13.830880355">
        <ele>2464.0</ele>
        <time>2017-08-18T09:20:15</time>
      </trkpt>
      <trkpt lat="46.379014095" lon="13.831173973">
        <ele>2476.5</ele>
        <time>2017-08-18T09:22:10</time>
      </trkpt>
      <trkpt lat="46.378810834" lon="13.831081437">
        <ele>2483.4</ele>
        <time>2017-08-18T09:23:05</time>
      </trkpt>
      <trkpt lat="46.378639843" lon="13.831207920">
        <ele>2483.7</ele>
        <time>2017-08-18T09:23:32</time>
      </trkpt>
      <trkpt lat="46.378560131" lon="13.831591057">
        <ele>2487.9</ele>
        <time>2017-08-18T09:24:43</time>
      </trkpt>
      <trkpt lat="46.378483521" lon="13.831690215">
        <ele>2487.6</ele>
        <time>2017-08-18T09:24:58</time>
      </trkpt>
      <trkpt lat="46.378018660" lon="13.831927171">
        <ele>2495.6</ele>
        <time>2017-08-18T09:26:42</time>
      </trkpt>
      <trkpt lat="46.377762929" lon="13.832110316">
        <ele>2498.0</ele>
        <time>2017-08-18T09:27:32</time>
      </trkpt>
      <trkpt lat="46.377740297" lon="13.832269069">
        <ele>2500.5</ele>
        <time>2017-08-18T09:27:50</time>
      </trkpt>
      <trkpt lat="46.377358669" lon="13.832855718">
        <ele>2513.4</ele>
        <time>2017-08-18T09:29:41</time>
      </trkpt>
      <trkpt lat="46.376997745" lon="13.833260397">
        <ele>2525.6</ele>
        <time>2017-08-18T09:32:04</time>
      </trkpt>
      <trkpt lat="46.377108302" lon="13.833368858">
        <ele>2530.6</ele>
        <time>2017-08-18T09:33:11</time>
      </trkpt>
      <trkpt lat="46.376822228" lon="13.833968667">
        <ele>2554.2</ele>
        <time>2017-08-18T09:37:13</time>
      </trkpt>
      <trkpt lat="46.376805296" lon="13.834204786">
        <ele>2559.2</ele>
        <time>2017-08-18T09:42:12</time>
      </trkpt>
      <trkpt lat="46.376803033" lon="13.834106466">
        <ele>2560.2</ele>
        <time>2017-08-18T09:47:48</time>
      </trkpt>
      <trkpt lat="46.376645956" lon="13.834194476">
        <ele>2571.2</ele>
        <time>2017-08-18T09:52:42</time>
      </trkpt>
      <trkpt lat="46.376434732" lon="13.834602172">
        <ele>2584.7</ele>
        <time>2017-08-18T09:55:26</time>
      </trkpt>
      <trkpt lat="46.376374885" lon="13.834551545">
        <ele>2589.1</ele>
        <time>2017-08-18T09:55:58</time>
      </trkpt>
      <trkpt lat="46.376112197" lon="13.834838290">
        <ele>2590.9</ele>
        <time>2017-08-18T09:57:37</time>
      </trkpt>
      <trkpt lat="46.376162907" lon="13.835042389">
        <ele>2594.2</ele>
        <time>2017-08-18T09:58:11</time>
      </trkpt>
      <trkpt lat="46.376319062" lon="13.835244980">
        <ele>2596.0</ele>
        <time>2017-08-18T09:58:34</time>
      </trkpt>
      <trkpt lat="46.376171960" lon="13.835128890">
        <ele>2598.3</ele>
        <time>2017-08-18T10:00:49</time>
      </trkpt>
      <trkpt lat="46.376132816" lon="13.835181529">
        <ele>2602.9</ele>
        <time>2017-08-18T10:02:34</time>
      </trkpt>
      <trkpt lat="46.376101300" lon="13.835314214">
        <ele>2607.2</ele>
        <time>2017-08-18T10:03:29</time>
      </trkpt>
      <trkpt lat="46.376156872" lon="13.835321087">
        <ele>2609.2</ele>
        <time>2017-08-18T10:03:49</time>
      </trkpt>
      <trkpt lat="46.376159387" lon="13.835495347">
        <ele>2613.8</ele>
        <time>2017-08-18T10:04:32</time>
      </trkpt>
      <trkpt lat="46.376282684" lon="13.835589811">
        <ele>2618.3</ele>
        <time>2017-08-18T10:05:07</time>
      </trkpt>
      <trkpt lat="46.376248235" lon="13.835661812">
        <ele>2620.2</ele>
        <time>2017-08-18T10:05:25</time>
      </trkpt>
      <trkpt lat="46.376174223" lon="13.835755019">
        <ele>2625.3</ele>
        <time>2017-08-18T10:06:12</time>
      </trkpt>
      <trkpt lat="46.376043633" lon="13.835473722">
        <ele>2627.9</ele>
        <time>2017-08-18T10:06:44</time>
      </trkpt>
      <trkpt lat="46.375954701" lon="13.835732136">
        <ele>2634.3</ele>
        <time>2017-08-18T10:07:50</time>
      </trkpt>
      <trkpt lat="46.376016978" lon="13.835751498">
        <ele>2637.8</ele>
        <time>2017-08-18T10:08:27</time>
      </trkpt>
      <trkpt lat="46.375959646" lon="13.835821822">
        <ele>2639.0</ele>
        <time>2017-08-18T10:08:42</time>
      </trkpt>
      <trkpt lat="46.375873648" lon="13.835723335">
        <ele>2640.0</ele>
        <time>2017-08-18T10:09:33</time>
      </trkpt>
      <trkpt lat="46.375857051" lon="13.835781924">
        <ele>2639.7</ele>
        <time>2017-08-18T10:09:49</time>
      </trkpt>
      <trkpt lat="46.376052350" lon="13.836053163">
        <ele>2650.7</ele>
        <time>2017-08-18T10:11:23</time>
      </trkpt>
      <trkpt lat="46.376224933" lon="13.836091468">
        <ele>2659.6</ele>
        <time>2017-08-18T10:12:33</time>
      </trkpt>
      <trkpt lat="46.376146311" lon="13.835746553">
        <ele>2678.7</ele>
        <time>2017-08-18T10:15:23</time>
      </trkpt>
      <trkpt lat="46.376348985" lon="13.835760215">
        <ele>2699.6</ele>
        <time>2017-08-18T10:18:09</time>
      </trkpt>
      <trkpt lat="46.376589965" lon="13.835910838">
        <ele>2713.8</ele>
        <time>2017-08-18T10:20:05</time>
      </trkpt>
      <trkpt lat="46.376660792" lon="13.835896505">
        <ele>2717.6</ele>
        <time>2017-08-18T10:20:30</time>
      </trkpt>
      <trkpt lat="46.376676969" lon="13.835790893">
        <ele>2724.1</ele>
        <time>2017-08-18T10:21:34</time>
      </trkpt>
      <trkpt lat="46.376809739" lon="13.835870270">
        <ele>2731.7</ele>
        <time>2017-08-18T10:22:36</time>
      </trkpt>
      <trkpt lat="46.376846535" lon="13.835564917">
        <ele>2744.9</ele>
        <time>2017-08-18T10:24:39</time>
      </trkpt>
      <trkpt lat="46.376944100" lon="13.835515967">
        <ele>2754.3</ele>
        <time>2017-08-18T10:25:55</time>
      </trkpt>
      <trkpt lat="46.377022807" lon="13.835559720">
        <ele>2760.2</ele>
        <time>2017-08-18T10:26:49</time>
      </trkpt>
      <trkpt lat="46.377074774" lon="13.835410439">
        <ele>2770.4</ele>
        <time>2017-08-18T10:28:02</time>
      </trkpt>
      <trkpt lat="46.377117187" lon="13.835544968">
        <ele>2775.0</ele>
        <time>2017-08-18T10:28:44</time>
      </trkpt>
      <trkpt lat="46.377181560" lon="13.835406918">
        <ele>2782.0</ele>
        <time>2017-08-18T10:30:10</time>
      </trkpt>
      <trkpt lat="46.377507448" lon="13.835678240">
        <ele>2802.6</ele>
        <time>2017-08-18T10:33:36</time>
      </trkpt>
      <trkpt lat="46.377612641" lon="13.835883513">
        <ele>2810.6</ele>
        <time>2017-08-18T10:34:55</time>
      </trkpt>
      <trkpt lat="46.377687491" lon="13.835933302">
        <ele>2816.7</ele>
        <time>2017-08-18T10:35:43</time>
      </trkpt>
      <trkpt lat="46.377752284" lon="13.835870270">
        <ele>2818.6</ele>
        <time>2017-08-18T10:36:13</time>
      </trkpt>
      <trkpt lat="46.377802659" lon="13.836028688">
        <ele>2824.5</ele>
        <time>2017-08-18T10:37:45</time>
      </trkpt>
      <trkpt lat="46.378036346" lon="13.836180484">
        <ele>2831.8</ele>
        <time>2017-08-18T10:39:17</time>
      </trkpt>
      <trkpt lat="46.378087308" lon="13.836312415">
        <ele>2838.8</ele>
        <time>2017-08-18T10:40:27</time>
      </trkpt>
      <trkpt lat="46.378244469" lon="13.836315852">
        <ele>2847.6</ele>
        <time>2017-08-18T10:41:42</time>
      </trkpt>
      <trkpt lat="46.378339017" lon="13.836436551">
        <ele>2854.9</ele>
        <time>2017-08-18T10:51:32</time>
      </trkpt>
      <trkpt lat="46.378360642" lon="13.836371256">
        <ele>2852.6</ele>
        <time>2017-08-18T10:52:03</time>
      </trkpt>
      <trkpt lat="46.378242793" lon="13.836243600">
        <ele>2847.0</ele>
        <time>2017-08-18T10:54:22</time>
      </trkpt>
      <trkpt lat="46.378229298" lon="13.836323228">
        <ele>2848.0</ele>
        <time>2017-08-18T10:55:31</time>
      </trkpt>
      <trkpt lat="46.378346896" lon="13.836372262">
        <ele>2857.5</ele>
        <time>2017-08-18T11:01:52</time>
      </trkpt>
      <trkpt lat="46.378360977" lon="13.836471587">
        <ele>2859.6</ele>
        <time>2017-08-18T11:02:26</time>
      </trkpt>
      <trkpt lat="46.378300041" lon="13.836791944">
        <ele>2860.6</ele>
        <time>2017-08-18T11:07:19</time>
      </trkpt>
      <trkpt lat="46.378145227" lon="13.836851120">
        <ele>2855.8</ele>
        <time>2017-08-18T11:10:00</time>
      </trkpt>
      <trkpt lat="46.377926627" lon="13.837322686">
        <ele>2847.5</ele>
        <time>2017-08-18T11:11:37</time>
      </trkpt>
      <trkpt lat="46.377961831" lon="13.837563582">
        <ele>2839.9</ele>
        <time>2017-08-18T11:12:51</time>
      </trkpt>
      <trkpt lat="46.377915982" lon="13.837757874">
        <ele>2829.4</ele>
        <time>2017-08-18T11:14:40</time>
      </trkpt>
      <trkpt lat="46.377996616" lon="13.837993992">
        <ele>2815.0</ele>
        <time>2017-08-18T11:16:37</time>
      </trkpt>
      <trkpt lat="46.377876671" lon="13.838753644">
        <ele>2798.0</ele>
        <time>2017-08-18T11:19:56</time>
      </trkpt>
      <trkpt lat="46.377764437" lon="13.839165363">
        <ele>2782.5</ele>
        <time>2017-08-18T11:22:02</time>
      </trkpt>
      <trkpt lat="46.377785727" lon="13.839949071">
        <ele>2748.5</ele>
        <time>2017-08-18T11:26:05</time>
      </trkpt>
      <trkpt lat="46.377590261" lon="13.840644769">
        <ele>2729.3</ele>
        <time>2017-08-18T11:28:30</time>
      </trkpt>
      <trkpt lat="46.377489762" lon="13.841615813">
        <ele>2728.2</ele>
        <time>2017-08-18T11:30:41</time>
      </trkpt>
      <trkpt lat="46.377119282" lon="13.842733959">
        <ele>2741.0</ele>
        <time>2017-08-18T11:33:25</time>
      </trkpt>
      <trkpt lat="46.376764141" lon="13.843381880">
        <ele>2742.2</ele>
        <time>2017-08-18T11:35:11</time>
      </trkpt>
      <trkpt lat="46.376629360" lon="13.844268182">
        <ele>2722.3</ele>
        <time>2017-08-18T11:38:16</time>
      </trkpt>
      <trkpt lat="46.376767242" lon="13.844384104">
        <ele>2714.5</ele>
        <time>2017-08-18T11:39:13</time>
      </trkpt>
      <trkpt lat="46.376853241" lon="13.844559789">
        <ele>2703.4</ele>
        <time>2017-08-18T11:40:31</time>
      </trkpt>
      <trkpt lat="46.377038481" lon="13.845183654">
        <ele>2675.9</ele>
        <time>2017-08-18T11:43:52</time>
      </trkpt>
      <trkpt lat="46.377022555" lon="13.845285829">
        <ele>2666.5</ele>
        <time>2017-08-18T11:45:11</time>
      </trkpt>
      <trkpt lat="46.376957009" lon="13.845201591">
        <ele>2661.9</ele>
        <time>2017-08-18T11:45:37</time>
      </trkpt>
      <trkpt lat="46.376908980" lon="13.845612053">
        <ele>2636.7</ele>
        <time>2017-08-18T11:48:27</time>
      </trkpt>
      <trkpt lat="46.377041079" lon="13.845729148">
        <ele>2622.5</ele>
        <time>2017-08-18T11:50:08</time>
      </trkpt>
      <trkpt lat="46.377018448" lon="13.846033076">
        <ele>2609.9</ele>
        <time>2017-08-18T11:51:26</time>
      </trkpt>
      <trkpt lat="46.377323801" lon="13.845980270">
        <ele>2593.4</ele>
        <time>2017-08-18T11:54:05</time>
      </trkpt>
      <trkpt lat="46.377372751" lon="13.846136173">
        <ele>2583.3</ele>
        <time>2017-08-18T11:55:22</time>
      </trkpt>
      <trkpt lat="46.377419103" lon="13.846112369">
        <ele>2580.4</ele>
        <time>2017-08-18T11:55:42</time>
      </trkpt>
      <trkpt lat="46.377432598" lon="13.845860995">
        <ele>2574.5</ele>
        <time>2017-08-18T11:56:37</time>
      </trkpt>
      <trkpt lat="46.377606439" lon="13.845889661">
        <ele>2552.6</ele>
        <time>2017-08-18T11:59:40</time>
      </trkpt>
      <trkpt lat="46.377608869" lon="13.846093342">
        <ele>2546.3</ele>
        <time>2017-08-18T12:00:19</time>
      </trkpt>
      <trkpt lat="46.377694113" lon="13.846091162">
        <ele>2543.8</ele>
        <time>2017-08-18T12:00:31</time>
      </trkpt>
      <trkpt lat="46.377757648" lon="13.846140532">
        <ele>2539.8</ele>
        <time>2017-08-18T12:01:01</time>
      </trkpt>
      <trkpt lat="46.377809616" lon="13.846267015">
        <ele>2533.2</ele>
        <time>2017-08-18T12:01:39</time>
      </trkpt>
      <trkpt lat="46.377778351" lon="13.846358964">
        <ele>2530.3</ele>
        <time>2017-08-18T12:01:52</time>
      </trkpt>
      <trkpt lat="46.378068030" lon="13.846598519">
        <ele>2522.6</ele>
        <time>2017-08-18T12:02:31</time>
      </trkpt>
      <trkpt lat="46.378088398" lon="13.847012753">
        <ele>2517.8</ele>
        <time>2017-08-18T12:03:24</time>
      </trkpt>
      <trkpt lat="46.378247570" lon="13.846989116">
        <ele>2516.3</ele>
        <time>2017-08-18T12:04:04</time>
      </trkpt>
      <trkpt lat="46.378268273" lon="13.847098332">
        <ele>2510.6</ele>
        <time>2017-08-18T12:04:45</time>
      </trkpt>
      <trkpt lat="46.378375730" lon="13.847156418">
        <ele>2504.7</ele>
        <time>2017-08-18T12:05:25</time>
      </trkpt>
      <trkpt lat="46.378467511" lon="13.847107636">
        <ele>2502.7</ele>
        <time>2017-08-18T12:05:39</time>
      </trkpt>
      <trkpt lat="46.378682675" lon="13.847505776">
        <ele>2498.2</ele>
        <time>2017-08-18T12:06:26</time>
      </trkpt>
      <trkpt lat="46.378770433" lon="13.847930320">
        <ele>2503.9</ele>
        <time>2017-08-18T12:07:24</time>
      </trkpt>
      <trkpt lat="46.378945448" lon="13.848030400">
        <ele>2512.7</ele>
        <time>2017-08-18T12:08:25</time>
      </trkpt>
      <trkpt lat="46.378891384" lon="13.848143555">
        <ele>2515.5</ele>
        <time>2017-08-18T12:08:43</time>
      </trkpt>
      <trkpt lat="46.379030440" lon="13.848348409">
        <ele>2519.4</ele>
        <time>2017-08-18T12:09:31</time>
      </trkpt>
      <trkpt lat="46.378782252" lon="13.848809497">
        <ele>2525.3</ele>
        <time>2017-08-18T12:11:02</time>
      </trkpt>
      <trkpt lat="46.378871771" lon="13.848932879">
        <ele>2525.0</ele>
        <time>2017-08-18T12:11:17</time>
      </trkpt>
      <trkpt lat="46.378973359" lon="13.848836739">
        <ele>2520.2</ele>
        <time>2017-08-18T12:26:21</time>
      </trkpt>
      <trkpt lat="46.378939915" lon="13.848906979">
        <ele>2518.9</ele>
        <time>2017-08-18T12:33:51</time>
      </trkpt>
      <trkpt lat="46.378940083" lon="13.848792398">
        <ele>2519.4</ele>
        <time>2017-08-18T12:50:06</time>
      </trkpt>
      <trkpt lat="46.378938407" lon="13.848875128">
        <ele>2517.2</ele>
        <time>2017-08-18T12:51:48</time>
      </trkpt>
      <trkpt lat="46.378812594" lon="13.848815030">
        <ele>2518.2</ele>
        <time>2017-08-18T12:52:26</time>
      </trkpt>
      <trkpt lat="46.378965899" lon="13.848366262">
        <ele>2512.2</ele>
        <time>2017-08-18T12:53:46</time>
      </trkpt>
      <trkpt lat="46.379232360" lon="13.848227626">
        <ele>2504.8</ele>
        <time>2017-08-18T12:54:43</time>
      </trkpt>
      <trkpt lat="46.379586998" lon="13.848229637">
        <ele>2502.0</ele>
        <time>2017-08-18T12:55:40</time>
      </trkpt>
      <trkpt lat="46.379835941" lon="13.848022521">
        <ele>2498.9</ele>
        <time>2017-08-18T12:56:27</time>
      </trkpt>
      <trkpt lat="46.380081279" lon="13.848314798">
        <ele>2488.9</ele>
        <time>2017-08-18T12:57:59</time>
      </trkpt>
      <trkpt lat="46.380500123" lon="13.848760966">
        <ele>2473.5</ele>
        <time>2017-08-18T13:01:26</time>
      </trkpt>
      <trkpt lat="46.380690057" lon="13.848900273">
        <ele>2469.4</ele>
        <time>2017-08-18T13:03:12</time>
      </trkpt>
      <trkpt lat="46.380654434" lon="13.848758284">
        <ele>2464.7</ele>
        <time>2017-08-18T13:03:40</time>
      </trkpt>
      <trkpt lat="46.380783850" lon="13.848682344">
        <ele>2453.6</ele>
        <time>2017-08-18T13:05:14</time>
      </trkpt>
      <trkpt lat="46.380904298" lon="13.848701371">
        <ele>2446.7</ele>
        <time>2017-08-18T13:06:19</time>
      </trkpt>
      <trkpt lat="46.380907735" lon="13.848632807">
        <ele>2443.4</ele>
        <time>2017-08-18T13:06:45</time>
      </trkpt>
      <trkpt lat="46.381109990" lon="13.848715704">
        <ele>2433.9</ele>
        <time>2017-08-18T13:07:54</time>
      </trkpt>
      <trkpt lat="46.381305205" lon="13.848566255">
        <ele>2420.2</ele>
        <time>2017-08-18T13:09:06</time>
      </trkpt>
      <trkpt lat="46.381721534" lon="13.848890047">
        <ele>2408.4</ele>
        <time>2017-08-18T13:10:51</time>
      </trkpt>
      <trkpt lat="46.381856566" lon="13.849137565">
        <ele>2403.8</ele>
        <time>2017-08-18T13:11:25</time>
      </trkpt>
      <trkpt lat="46.382322684" lon="13.849443253">
        <ele>2390.7</ele>
        <time>2017-08-18T13:13:08</time>
      </trkpt>
      <trkpt lat="46.382474145" lon="13.849611310">
        <ele>2386.2</ele>
        <time>2017-08-18T13:13:34</time>
      </trkpt>
      <trkpt lat="46.382500129" lon="13.849705523">
        <ele>2383.8</ele>
        <time>2017-08-18T13:13:48</time>
      </trkpt>
      <trkpt lat="46.382636754" lon="13.849637210">
        <ele>2380.9</ele>
        <time>2017-08-18T13:14:16</time>
      </trkpt>
      <trkpt lat="46.382751083" lon="13.849700326">
        <ele>2375.1</ele>
        <time>2017-08-18T13:14:44</time>
      </trkpt>
      <trkpt lat="46.382968342" lon="13.849499999">
        <ele>2370.2</ele>
        <time>2017-08-18T13:15:17</time>
      </trkpt>
      <trkpt lat="46.383250644" lon="13.849648358">
        <ele>2358.0</ele>
        <time>2017-08-18T13:16:31</time>
      </trkpt>
      <trkpt lat="46.383566139" lon="13.849316686">
        <ele>2343.1</ele>
        <time>2017-08-18T13:17:51</time>
      </trkpt>
      <trkpt lat="46.384169050" lon="13.849316854">
        <ele>2318.7</ele>
        <time>2017-08-18T13:20:09</time>
      </trkpt>
      <trkpt lat="46.384190340" lon="13.849387933">
        <ele>2317.1</ele>
        <time>2017-08-18T13:20:22</time>
      </trkpt>
      <trkpt lat="46.384248342" lon="13.849184001">
        <ele>2307.7</ele>
        <time>2017-08-18T13:21:20</time>
      </trkpt>
      <trkpt lat="46.384446993" lon="13.848952996">
        <ele>2300.6</ele>
        <time>2017-08-18T13:23:15</time>
      </trkpt>
      <trkpt lat="46.384786209" lon="13.848915948">
        <ele>2289.7</ele>
        <time>2017-08-18T13:24:21</time>
      </trkpt>
      <trkpt lat="46.384847481" lon="13.848998174">
        <ele>2286.2</ele>
        <time>2017-08-18T13:24:37</time>
      </trkpt>
      <trkpt lat="46.385090807" lon="13.848970681">
        <ele>2277.0</ele>
        <time>2017-08-18T13:25:11</time>
      </trkpt>
      <trkpt lat="46.385373780" lon="13.849073025">
        <ele>2263.5</ele>
        <time>2017-08-18T13:26:15</time>
      </trkpt>
      <trkpt lat="46.385807795" lon="13.849923369">
        <ele>2258.9</ele>
        <time>2017-08-18T13:28:19</time>
      </trkpt>
      <trkpt lat="46.386029497" lon="13.850394348">
        <ele>2246.9</ele>
        <time>2017-08-18T13:29:46</time>
      </trkpt>
      <trkpt lat="46.386095211" lon="13.850592580">
        <ele>2241.3</ele>
        <time>2017-08-18T13:30:26</time>
      </trkpt>
      <trkpt lat="46.386251198" lon="13.850690061">
        <ele>2235.7</ele>
        <time>2017-08-18T13:31:45</time>
      </trkpt>
      <trkpt lat="46.386280786" lon="13.850588137">
        <ele>2229.5</ele>
        <time>2017-08-18T13:32:34</time>
      </trkpt>
      <trkpt lat="46.386508439" lon="13.850667095">
        <ele>2225.6</ele>
        <time>2017-08-18T13:33:22</time>
      </trkpt>
      <trkpt lat="46.386622433" lon="13.850807240">
        <ele>2224.4</ele>
        <time>2017-08-18T13:33:48</time>
      </trkpt>
      <trkpt lat="46.386849666" lon="13.850767091">
        <ele>2215.6</ele>
        <time>2017-08-18T13:35:06</time>
      </trkpt>
      <trkpt lat="46.387016633" lon="13.850938166">
        <ele>2215.3</ele>
        <time>2017-08-18T13:35:55</time>
      </trkpt>
      <trkpt lat="46.387024345" lon="13.851084178">
        <ele>2211.5</ele>
        <time>2017-08-18T13:36:21</time>
      </trkpt>
      <trkpt lat="46.387137836" lon="13.851092393">
        <ele>2209.6</ele>
        <time>2017-08-18T13:36:35</time>
      </trkpt>
      <trkpt lat="46.387206064" lon="13.851260450">
        <ele>2203.7</ele>
        <time>2017-08-18T13:37:00</time>
      </trkpt>
      <trkpt lat="46.387150912" lon="13.851340832">
        <ele>2201.9</ele>
        <time>2017-08-18T13:37:14</time>
      </trkpt>
      <trkpt lat="46.387542849" lon="13.851638055">
        <ele>2191.0</ele>
        <time>2017-08-18T13:38:31</time>
      </trkpt>
      <trkpt lat="46.387668494" lon="13.851883225">
        <ele>2190.5</ele>
        <time>2017-08-18T13:38:58</time>
      </trkpt>
      <trkpt lat="46.387914168" lon="13.852176759">
        <ele>2186.3</ele>
        <time>2017-08-18T13:40:06</time>
      </trkpt>
      <trkpt lat="46.388713801" lon="13.852575989">
        <ele>2170.4</ele>
        <time>2017-08-18T13:43:32</time>
      </trkpt>
      <trkpt lat="46.388788568" lon="13.852578085">
        <ele>2168.0</ele>
        <time>2017-08-18T13:43:51</time>
      </trkpt>
      <trkpt lat="46.388870375" lon="13.852411117">
        <ele>2161.9</ele>
        <time>2017-08-18T13:44:37</time>
      </trkpt>
      <trkpt lat="46.389227780" lon="13.852183800">
        <ele>2147.1</ele>
        <time>2017-08-18T13:45:54</time>
      </trkpt>
      <trkpt lat="46.389517291" lon="13.852165444">
        <ele>2137.6</ele>
        <time>2017-08-18T13:46:40</time>
      </trkpt>
      <trkpt lat="46.389531791" lon="13.852037787">
        <ele>2131.9</ele>
        <time>2017-08-18T13:47:09</time>
      </trkpt>
      <trkpt lat="46.389830103" lon="13.851765879">
        <ele>2120.4</ele>
        <time>2017-08-18T13:48:52</time>
      </trkpt>
      <trkpt lat="46.389861116" lon="13.851505201">
        <ele>2113.1</ele>
        <time>2017-08-18T13:49:26</time>
      </trkpt>
      <trkpt lat="46.390202008" lon="13.851129692">
        <ele>2100.2</ele>
        <time>2017-08-18T13:51:27</time>
      </trkpt>
      <trkpt lat="46.389973266" lon="13.850722080">
        <ele>2095.2</ele>
        <time>2017-08-18T13:52:00</time>
      </trkpt>
      <trkpt lat="46.390084242" lon="13.850801792">
        <ele>2095.6</ele>
        <time>2017-08-18T13:52:16</time>
      </trkpt>
      <trkpt lat="46.390275182" lon="13.850560812">
        <ele>2099.6</ele>
        <time>2017-08-18T13:52:59</time>
      </trkpt>
      <trkpt lat="46.390563855" lon="13.850586209">
        <ele>2103.4</ele>
        <time>2017-08-18T13:53:37</time>
      </trkpt>
      <trkpt lat="46.390578859" lon="13.850504570">
        <ele>2103.4</ele>
        <time>2017-08-18T13:54:34</time>
      </trkpt>
      <trkpt lat="46.391006084" lon="13.850857867">
        <ele>2085.3</ele>
        <time>2017-08-18T14:01:21</time>
      </trkpt>
      <trkpt lat="46.391100548" lon="13.850767091">
        <ele>2083.0</ele>
        <time>2017-08-18T14:01:53</time>
      </trkpt>
      <trkpt lat="46.391246896" lon="13.850793326">
        <ele>2074.8</ele>
        <time>2017-08-18T14:02:57</time>
      </trkpt>
      <trkpt lat="46.391635230" lon="13.850983176">
        <ele>2061.8</ele>
        <time>2017-08-18T14:04:53</time>
      </trkpt>
      <trkpt lat="46.392544163" lon="13.850400969">
        <ele>2043.6</ele>
        <time>2017-08-18T14:09:53</time>
      </trkpt>
      <trkpt lat="46.392636029" lon="13.850079775">
        <ele>2041.2</ele>
        <time>2017-08-18T14:10:28</time>
      </trkpt>
      <trkpt lat="46.392700737" lon="13.850094443">
        <ele>2039.5</ele>
        <time>2017-08-18T14:11:00</time>
      </trkpt>
      <trkpt lat="46.392909698" lon="13.849698398">
        <ele>2018.1</ele>
        <time>2017-08-18T14:13:41</time>
      </trkpt>
      <trkpt lat="46.393132825" lon="13.849518439">
        <ele>1994.8</ele>
        <time>2017-08-18T14:18:50</time>
      </trkpt>
      <trkpt lat="46.393297529" lon="13.849630421">
        <ele>1999.5</ele>
        <time>2017-08-18T14:19:31</time>
      </trkpt>
      <trkpt lat="46.393470615" lon="13.849995872">
        <ele>2003.0</ele>
        <time>2017-08-18T14:20:30</time>
      </trkpt>
      <trkpt lat="46.393882250" lon="13.849954549">
        <ele>1986.8</ele>
        <time>2017-08-18T14:22:34</time>
      </trkpt>
      <trkpt lat="46.393959699" lon="13.850015150">
        <ele>1985.4</ele>
        <time>2017-08-18T14:22:48</time>
      </trkpt>
      <trkpt lat="46.394081069" lon="13.850358306">
        <ele>1987.8</ele>
        <time>2017-08-18T14:24:10</time>
      </trkpt>
      <trkpt lat="46.394147705" lon="13.850374986">
        <ele>1981.9</ele>
        <time>2017-08-18T14:25:31</time>
      </trkpt>
      <trkpt lat="46.394175282" lon="13.850090420">
        <ele>1981.9</ele>
        <time>2017-08-18T14:26:11</time>
      </trkpt>
      <trkpt lat="46.394118033" lon="13.850067956">
        <ele>1983.3</ele>
        <time>2017-08-18T14:26:53</time>
      </trkpt>
      <trkpt lat="46.394405700" lon="13.849983383">
        <ele>1979.8</ele>
        <time>2017-08-18T14:28:31</time>
      </trkpt>
      <trkpt lat="46.394446352" lon="13.849809291">
        <ele>1972.9</ele>
        <time>2017-08-18T14:29:46</time>
      </trkpt>
      <trkpt lat="46.394391535" lon="13.849544339">
        <ele>1964.8</ele>
        <time>2017-08-18T14:30:39</time>
      </trkpt>
      <trkpt lat="46.394493123" lon="13.849369660">
        <ele>1951.5</ele>
        <time>2017-08-18T14:32:01</time>
      </trkpt>
      <trkpt lat="46.394470157" lon="13.849157095">
        <ele>1939.2</ele>
        <time>2017-08-18T14:33:40</time>
      </trkpt>
      <trkpt lat="46.394701246" lon="13.849081490">
        <ele>1929.2</ele>
        <time>2017-08-18T14:35:32</time>
      </trkpt>
      <trkpt lat="46.394708119" lon="13.848865069">
        <ele>1926.9</ele>
        <time>2017-08-18T14:35:59</time>
      </trkpt>
      <trkpt lat="46.394817000" lon="13.848566255">
        <ele>1920.0</ele>
        <time>2017-08-18T14:37:25</time>
      </trkpt>
      <trkpt lat="46.394815408" lon="13.848639764">
        <ele>1920.4</ele>
        <time>2017-08-18T14:37:46</time>
      </trkpt>
      <trkpt lat="46.394982124" lon="13.848448824">
        <ele>1908.0</ele>
        <time>2017-08-18T14:39:11</time>
      </trkpt>
      <trkpt lat="46.395006347" lon="13.848495427">
        <ele>1904.0</ele>
        <time>2017-08-18T14:39:39</time>
      </trkpt>
      <trkpt lat="46.395049095" lon="13.848598441">
        <ele>1897.7</ele>
        <time>2017-08-18T14:40:39</time>
      </trkpt>
      <trkpt lat="46.395223942" lon="13.848508503">
        <ele>1878.8</ele>
        <time>2017-08-18T14:42:39</time>
      </trkpt>
      <trkpt lat="46.395334918" lon="13.848490650">
        <ele>1867.3</ele>
        <time>2017-08-18T14:44:42</time>
      </trkpt>
      <trkpt lat="46.395438015" lon="13.848532727">
        <ele>1855.7</ele>
        <time>2017-08-18T14:46:13</time>
      </trkpt>
      <trkpt lat="46.395435166" lon="13.848436587">
        <ele>1850.7</ele>
        <time>2017-08-18T14:46:39</time>
      </trkpt>
      <trkpt lat="46.395483613" lon="13.848447735">
        <ele>1848.5</ele>
        <time>2017-08-18T14:47:05</time>
      </trkpt>
      <trkpt lat="46.395546310" lon="13.848558459">
        <ele>1842.9</ele>
        <time>2017-08-18T14:48:08</time>
      </trkpt>
      <trkpt lat="46.395603390" lon="13.848496601">
        <ele>1839.4</ele>
        <time>2017-08-18T14:48:41</time>
      </trkpt>
      <trkpt lat="46.395729622" lon="13.848634902">
        <ele>1828.8</ele>
        <time>2017-08-18T14:49:45</time>
      </trkpt>
      <trkpt lat="46.395887202" lon="13.848744286">
        <ele>1812.2</ele>
        <time>2017-08-18T14:52:03</time>
      </trkpt>
      <trkpt lat="46.396006308" lon="13.848639093">
        <ele>1799.0</ele>
        <time>2017-08-18T14:54:25</time>
      </trkpt>
      <trkpt lat="46.396099515" lon="13.848360898">
        <ele>1798.3</ele>
        <time>2017-08-18T14:55:44</time>
      </trkpt>
      <trkpt lat="46.396305123" lon="13.848457122">
        <ele>1793.1</ele>
        <time>2017-08-18T14:58:20</time>
      </trkpt>
      <trkpt lat="46.396399420" lon="13.848644709">
        <ele>1787.4</ele>
        <time>2017-08-18T14:59:30</time>
      </trkpt>
      <trkpt lat="46.396567561" lon="13.848745543">
        <ele>1778.5</ele>
        <time>2017-08-18T15:00:33</time>
      </trkpt>
      <trkpt lat="46.396779707" lon="13.848607913">
        <ele>1763.4</ele>
        <time>2017-08-18T15:04:28</time>
      </trkpt>
      <trkpt lat="46.396802505" lon="13.848761637">
        <ele>1757.6</ele>
        <time>2017-08-18T15:04:50</time>
      </trkpt>
      <trkpt lat="46.396986321" lon="13.848957270">
        <ele>1740.1</ele>
        <time>2017-08-18T15:06:08</time>
      </trkpt>
      <trkpt lat="46.397044826" lon="13.849161202">
        <ele>1728.2</ele>
        <time>2017-08-18T15:07:14</time>
      </trkpt>
      <trkpt lat="46.397191845" lon="13.849074617">
        <ele>1716.4</ele>
        <time>2017-08-18T15:08:28</time>
      </trkpt>
      <trkpt lat="46.397250518" lon="13.849150389">
        <ele>1710.5</ele>
        <time>2017-08-18T15:09:01</time>
      </trkpt>
      <trkpt lat="46.397362333" lon="13.849022649">
        <ele>1700.2</ele>
        <time>2017-08-18T15:10:05</time>
      </trkpt>
      <trkpt lat="46.397371972" lon="13.849113006">
        <ele>1694.5</ele>
        <time>2017-08-18T15:10:38</time>
      </trkpt>
      <trkpt lat="46.397539778" lon="13.848958863">
        <ele>1683.0</ele>
        <time>2017-08-18T15:11:56</time>
      </trkpt>
      <trkpt lat="46.397591662" lon="13.849050896">
        <ele>1671.9</ele>
        <time>2017-08-18T15:13:36</time>
      </trkpt>
      <trkpt lat="46.397882011" lon="13.848516466">
        <ele>1640.9</ele>
        <time>2017-08-18T15:16:28</time>
      </trkpt>
      <trkpt lat="46.397952084" lon="13.848548317">
        <ele>1637.2</ele>
        <time>2017-08-18T15:16:46</time>
      </trkpt>
      <trkpt lat="46.397928949" lon="13.848253526">
        <ele>1625.6</ele>
        <time>2017-08-18T15:18:16</time>
      </trkpt>
      <trkpt lat="46.397747565" lon="13.848008104">
        <ele>1608.1</ele>
        <time>2017-08-18T15:20:24</time>
      </trkpt>
      <trkpt lat="46.397867342" lon="13.847490437">
        <ele>1590.9</ele>
        <time>2017-08-18T15:22:33</time>
      </trkpt>
      <trkpt lat="46.398002710" lon="13.847434530">
        <ele>1578.4</ele>
        <time>2017-08-18T15:24:20</time>
      </trkpt>
      <trkpt lat="46.398075298" lon="13.847135883">
        <ele>1561.4</ele>
        <time>2017-08-18T15:26:55</time>
      </trkpt>
      <trkpt lat="46.397685204" lon="13.847047202">
        <ele>1538.2</ele>
        <time>2017-08-18T15:30:00</time>
      </trkpt>
      <trkpt lat="46.397757120" lon="13.846860118">
        <ele>1527.1</ele>
        <time>2017-08-18T15:31:04</time>
      </trkpt>
      <trkpt lat="46.398064652" lon="13.846566333">
        <ele>1517.2</ele>
        <time>2017-08-18T15:32:17</time>
      </trkpt>
      <trkpt lat="46.398404706" lon="13.846903201">
        <ele>1513.9</ele>
        <time>2017-08-18T15:36:34</time>
      </trkpt>
      <trkpt lat="46.398523310" lon="13.847182738">
        <ele>1508.9</ele>
        <time>2017-08-18T15:37:37</time>
      </trkpt>
      <trkpt lat="46.398945674" lon="13.847422460">
        <ele>1485.7</ele>
        <time>2017-08-18T15:39:19</time>
      </trkpt>
      <trkpt lat="46.399125131" lon="13.847484822">
        <ele>1477.2</ele>
        <time>2017-08-18T15:40:07</time>
      </trkpt>
      <trkpt lat="46.399408691" lon="13.847418102">
        <ele>1465.2</ele>
        <time>2017-08-18T15:41:12</time>
      </trkpt>
      <trkpt lat="46.399553195" lon="13.847534778">
        <ele>1465.5</ele>
        <time>2017-08-18T15:41:42</time>
      </trkpt>
      <trkpt lat="46.399673894" lon="13.847397063">
        <ele>1467.3</ele>
        <time>2017-08-18T15:42:41</time>
      </trkpt>
      <trkpt lat="46.399974050" lon="13.847273095">
        <ele>1455.3</ele>
        <time>2017-08-18T15:46:56</time>
      </trkpt>
      <trkpt lat="46.400320139" lon="13.847664027">
        <ele>1446.3</ele>
        <time>2017-08-18T15:48:05</time>
      </trkpt>
      <trkpt lat="46.400509654" lon="13.847723370">
        <ele>1434.6</ele>
        <time>2017-08-18T15:48:53</time>
      </trkpt>
      <trkpt lat="46.400777288" lon="13.847496053">
        <ele>1422.1</ele>
        <time>2017-08-18T15:50:07</time>
      </trkpt>
      <trkpt lat="46.400675783" lon="13.847470907">
        <ele>1414.4</ele>
        <time>2017-08-18T15:50:50</time>
      </trkpt>
      <trkpt lat="46.400604872" lon="13.847296983">
        <ele>1405.5</ele>
        <time>2017-08-18T15:51:35</time>
      </trkpt>
      <trkpt lat="46.400728505" lon="13.847012082">
        <ele>1387.4</ele>
        <time>2017-08-18T15:53:09</time>
      </trkpt>
      <trkpt lat="46.400876949" lon="13.846854838">
        <ele>1373.1</ele>
        <time>2017-08-18T15:54:28</time>
      </trkpt>
      <trkpt lat="46.401244076" lon="13.846785938">
        <ele>1348.4</ele>
        <time>2017-08-18T15:57:09</time>
      </trkpt>
      <trkpt lat="46.401378103" lon="13.846674208">
        <ele>1336.3</ele>
        <time>2017-08-18T15:58:26</time>
      </trkpt>
      <trkpt lat="46.401256397" lon="13.846235583">
        <ele>1311.2</ele>
        <time>2017-08-18T16:00:06</time>
      </trkpt>
      <trkpt lat="46.401309623" lon="13.845865605">
        <ele>1292.0</ele>
        <time>2017-08-18T16:01:56</time>
      </trkpt>
      <trkpt lat="46.401214907" lon="13.845782289">
        <ele>1286.2</ele>
        <time>2017-08-18T16:02:27</time>
      </trkpt>
      <trkpt lat="46.401357399" lon="13.845502920">
        <ele>1277.1</ele>
        <time>2017-08-18T16:03:18</time>
      </trkpt>
      <trkpt lat="46.401279448" lon="13.845404433">
        <ele>1264.7</ele>
        <time>2017-08-18T16:04:16</time>
      </trkpt>
      <trkpt lat="46.401333762" lon="13.845195221">
        <ele>1255.1</ele>
        <time>2017-08-18T16:05:00</time>
      </trkpt>
      <trkpt lat="46.401281962" lon="13.845007801">
        <ele>1245.3</ele>
        <time>2017-08-18T16:05:52</time>
      </trkpt>
      <trkpt lat="46.401386736" lon="13.844802445">
        <ele>1234.1</ele>
        <time>2017-08-18T16:06:34</time>
      </trkpt>
      <trkpt lat="46.401426047" lon="13.844750645">
        <ele>1231.2</ele>
        <time>2017-08-18T16:06:51</time>
      </trkpt>
      <trkpt lat="46.401636265" lon="13.844903950">
        <ele>1219.8</ele>
        <time>2017-08-18T16:07:42</time>
      </trkpt>
      <trkpt lat="46.401625285" lon="13.844839493">
        <ele>1216.7</ele>
        <time>2017-08-18T16:07:54</time>
      </trkpt>
      <trkpt lat="46.401834665" lon="13.844626006">
        <ele>1197.6</ele>
        <time>2017-08-18T16:09:05</time>
      </trkpt>
      <trkpt lat="46.401927285" lon="13.844611421">
        <ele>1188.3</ele>
        <time>2017-08-18T16:09:51</time>
      </trkpt>
      <trkpt lat="46.402070783" lon="13.844296094">
        <ele>1174.8</ele>
        <time>2017-08-18T16:10:48</time>
      </trkpt>
      <trkpt lat="46.402233811" lon="13.844134575">
        <ele>1171.8</ele>
        <time>2017-08-18T16:11:14</time>
      </trkpt>
      <trkpt lat="46.402292149" lon="13.843669547">
        <ele>1157.5</ele>
        <time>2017-08-18T16:12:22</time>
      </trkpt>
      <trkpt lat="46.402518628" lon="13.843502076">
        <ele>1149.5</ele>
        <time>2017-08-18T16:12:59</time>
      </trkpt>
      <trkpt lat="46.402834207" lon="13.843417754">
        <ele>1140.0</ele>
        <time>2017-08-18T16:13:49</time>
      </trkpt>
      <trkpt lat="46.403285489" lon="13.842622815">
        <ele>1111.9</ele>
        <time>2017-08-18T16:15:52</time>
      </trkpt>
      <trkpt lat="46.403830731" lon="13.842448220">
        <ele>1094.5</ele>
        <time>2017-08-18T16:17:26</time>
      </trkpt>
      <trkpt lat="46.403985797" lon="13.842307236">
        <ele>1086.8</ele>
        <time>2017-08-18T16:18:11</time>
      </trkpt>
      <trkpt lat="46.404159218" lon="13.842032226">
        <ele>1078.3</ele>
        <time>2017-08-18T16:18:48</time>
      </trkpt>
      <trkpt lat="46.404401707" lon="13.841844890">
        <ele>1071.2</ele>
        <time>2017-08-18T16:19:23</time>
      </trkpt>
      <trkpt lat="46.404422578" lon="13.841665601">
        <ele>1066.2</ele>
        <time>2017-08-18T16:19:51</time>
      </trkpt>
      <trkpt lat="46.404614020" lon="13.841304341">
        <ele>1053.3</ele>
        <time>2017-08-18T16:20:44</time>
      </trkpt>
      <trkpt lat="46.404826669" lon="13.841121113">
        <ele>1052.0</ele>
        <time>2017-08-18T16:21:11</time>
      </trkpt>
      <trkpt lat="46.405266216" lon="13.841034360">
        <ele>1051.1</ele>
        <time>2017-08-18T16:21:59</time>
      </trkpt>
      <trkpt lat="46.405540640" lon="13.841237370">
        <ele>1050.2</ele>
        <time>2017-08-18T16:22:34</time>
      </trkpt>
      <trkpt lat="46.405589506" lon="13.841377431">
        <ele>1049.7</ele>
        <time>2017-08-18T16:22:48</time>
      </trkpt>
      <trkpt lat="46.405597301" lon="13.841308532">
        <ele>1049.0</ele>
        <time>2017-08-18T16:23:18</time>
      </trkpt>
      <trkpt lat="46.406926084" lon="13.841674486">
        <ele>1045.4</ele>
        <time>2017-08-18T16:25:34</time>
      </trkpt>
      <trkpt lat="46.407371834" lon="13.841646239">
        <ele>1042.6</ele>
        <time>2017-08-18T16:26:17</time>
      </trkpt>
      <trkpt lat="46.408685194" lon="13.842435563">
        <ele>1038.5</ele>
        <time>2017-08-18T16:28:30</time>
      </trkpt>
      <trkpt lat="46.408995911" lon="13.842719877">
        <ele>1037.4</ele>
        <time>2017-08-18T16:28:57</time>
      </trkpt>
      <trkpt lat="46.409145361" lon="13.842928000">
        <ele>1037.5</ele>
        <time>2017-08-18T16:29:06</time>
      </trkpt>
      <trkpt lat="46.409202022" lon="13.843149785">
        <ele>1037.7</ele>
        <time>2017-08-18T16:29:15</time>
      </trkpt>
      <trkpt lat="46.409116946" lon="13.843398560">
        <ele>1040.9</ele>
        <time>2017-08-18T16:29:58</time>
      </trkpt>
      <trkpt lat="46.408897676" lon="13.843366290">
        <ele>1039.8</ele>
        <time>2017-08-18T16:31:02</time>
      </trkpt>
    </trkseg>
  </trk>
</gpx>
